createdAt,value
2023-04-22T00:00:14.444Z,97127.31
2023-04-22T00:02:43.852Z,97122.69
2023-04-22T00:05:15.183Z,97114.59
2023-04-22T00:07:45.644Z,97110.78
2023-04-22T00:10:14.231Z,97109.66
2023-04-22T00:12:44.013Z,97102.22
2023-04-22T00:15:15.752Z,97103.56
2023-04-22T00:17:46.064Z,97104.69
2023-04-22T00:20:15.116Z,97114.03
2023-04-22T00:22:43.459Z,97116.56
2023-04-22T00:25:11.779Z,97121.41
2023-04-22T00:27:40.094Z,97117.44
2023-04-22T00:30:11.036Z,97120.59
2023-04-22T00:32:42.099Z,97110.31
2023-04-22T00:35:10.632Z,97112.50
2023-04-22T00:37:38.995Z,97108.53
2023-04-22T00:40:09.432Z,97115.03
2023-04-22T00:42:38.809Z,97113.53
2023-04-22T00:45:14.262Z,97122.03
2023-04-22T00:47:43.368Z,97122.19
2023-04-22T00:50:12.227Z,97117.19
2023-04-22T00:52:40.792Z,97117.38
2023-04-22T00:55:10.338Z,97122.03
2023-04-22T00:57:39.662Z,97117.88
2023-04-22T01:00:10.316Z,97123.56
2023-04-22T01:02:40.275Z,97116.25
2023-04-22T01:05:10.552Z,97126.22
2023-04-22T01:07:39.003Z,97126.56
2023-04-22T01:10:09.058Z,97131.41
2023-04-22T01:12:37.386Z,97128.91
2023-04-22T01:15:07.664Z,97135.53
2023-04-22T01:17:36.776Z,97129.75
2023-04-22T01:20:13.404Z,97124.97
2023-04-22T01:22:46.120Z,97135.09
2023-04-22T01:25:15.880Z,97132.75
2023-04-22T01:27:44.775Z,97125.97
2023-04-22T01:30:14.196Z,97135.13
2023-04-22T01:32:42.912Z,97130.47
2023-04-22T01:35:11.806Z,97122.00
2023-04-22T01:37:40.679Z,97124.16
2023-04-22T01:40:12.847Z,97126.34
2023-04-22T01:42:42.879Z,97124.03
2023-04-22T01:45:13.191Z,97121.03
2023-04-22T01:47:41.569Z,97131.97
2023-04-22T01:50:11.360Z,97131.47
2023-04-22T01:52:39.759Z,97128.97
2023-04-22T01:55:10.315Z,97128.34
2023-04-22T01:57:42.357Z,97130.31
2023-04-22T02:00:12.448Z,97125.34
2023-04-22T02:02:41.272Z,97123.84
2023-04-22T02:05:10.863Z,97125.03
2023-04-22T02:07:39.307Z,97125.19
2023-04-22T02:10:09.452Z,97126.34
2023-04-22T02:12:37.799Z,97132.81
2023-04-22T02:15:09.211Z,97132.13
2023-04-22T02:17:37.878Z,97140.44
2023-04-22T02:20:07.929Z,97136.28
2023-04-22T02:22:36.756Z,97137.47
2023-04-22T02:25:06.092Z,97127.47
2023-04-22T02:27:34.395Z,97132.94
2023-04-22T02:30:05.350Z,97132.44
2023-04-22T02:32:40.039Z,97122.16
2023-04-22T02:35:09.639Z,97126.78
2023-04-22T02:37:41.302Z,97124.28
2023-04-22T02:40:10.596Z,97124.59
2023-04-22T02:42:39.078Z,97124.78
2023-04-22T02:45:08.922Z,97127.78
2023-04-22T02:47:38.685Z,97122.97
2023-04-22T02:50:08.927Z,97123.13
2023-04-22T02:52:37.249Z,97120.81
2023-04-22T02:55:06.326Z,97120.81
2023-04-22T02:57:37.710Z,97122.94
2023-04-22T03:00:08.098Z,97123.25
2023-04-22T03:02:36.807Z,97126.06
2023-04-22T03:05:07.587Z,97128.06
2023-04-22T03:07:35.945Z,97122.91
2023-04-22T03:10:04.609Z,97138.81
2023-04-22T03:12:32.898Z,97129.53
2023-04-22T03:15:01.180Z,97138.16
2023-04-22T03:17:29.479Z,97130.38
2023-04-22T03:19:57.788Z,97131.50
2023-04-22T03:22:27.504Z,97130.03
2023-04-22T03:24:56.075Z,97130.19
2023-04-22T03:27:24.336Z,97122.72
2023-04-22T03:29:55.751Z,97128.19
2023-04-22T03:32:26.698Z,97129.19
2023-04-22T03:34:55.003Z,97125.84
2023-04-22T03:37:23.339Z,97133.13
2023-04-22T03:39:53.034Z,97131.63
2023-04-22T03:42:21.375Z,97130.13
2023-04-22T03:44:52.039Z,97126.00
2023-04-22T03:47:23.007Z,97120.16
2023-04-22T03:49:51.365Z,97125.78
2023-04-22T03:52:19.705Z,97122.47
2023-04-22T03:54:50.099Z,97129.91
2023-04-22T03:57:19.805Z,97117.31
2023-04-22T03:59:50.895Z,97120.94
2023-04-22T04:02:19.360Z,97113.28
2023-04-22T04:04:47.961Z,97110.31
2023-04-22T04:07:22.631Z,97113.13
2023-04-22T04:09:50.992Z,97121.06
2023-04-22T04:12:20.752Z,97118.75
2023-04-22T04:14:49.078Z,97128.50
2023-04-22T04:17:17.475Z,97121.69
2023-04-22T04:19:54.733Z,97130.47
2023-04-22T04:22:23.187Z,97131.63
2023-04-22T04:24:52.496Z,97131.63
2023-04-22T04:27:27.514Z,97130.94
2023-04-22T04:29:56.033Z,97133.56
2023-04-22T04:32:25.079Z,97131.25
2023-04-22T04:34:53.990Z,97136.72
2023-04-22T04:37:31.108Z,97138.53
2023-04-22T04:39:59.842Z,97138.00
2023-04-22T04:42:30.578Z,97141.66
2023-04-22T04:44:59.599Z,97141.81
2023-04-22T04:47:28.464Z,97139.16
2023-04-22T04:49:58.560Z,97141.09
2023-04-22T04:52:27.095Z,97137.78
2023-04-22T04:54:55.383Z,97145.22
2023-04-22T04:57:23.746Z,97147.03
2023-04-22T04:59:53.464Z,97145.38
2023-04-22T05:02:21.879Z,97149.81
2023-04-22T05:04:50.655Z,97144.53
2023-04-22T05:07:28.005Z,97149.00
2023-04-22T05:09:56.308Z,97143.88
2023-04-22T05:12:24.619Z,97154.31
2023-04-22T05:14:54.926Z,97154.16
2023-04-22T05:17:23.474Z,97149.81
2023-04-22T05:19:51.840Z,97157.16
2023-04-22T05:22:23.573Z,97159.78
2023-04-22T05:24:51.835Z,97153.38
2023-04-22T05:27:20.459Z,97163.69
2023-04-22T05:29:48.881Z,97163.38
2023-04-22T05:32:21.713Z,97155.28
2023-04-22T05:34:50.088Z,97160.22
2023-04-22T05:37:18.390Z,97163.41
2023-04-22T05:39:46.717Z,97159.59
2023-04-22T05:42:15.077Z,97159.13
2023-04-22T05:44:43.388Z,97159.50
2023-04-22T05:47:11.741Z,97161.50
2023-04-22T05:49:41.856Z,97161.72
2023-04-22T05:52:15.938Z,97154.94
2023-04-22T05:54:44.244Z,97152.19
2023-04-22T05:57:12.830Z,97157.34
2023-04-22T05:59:41.390Z,97155.38
2023-04-22T06:02:10.036Z,97153.28
2023-04-22T06:04:39.188Z,97149.31
2023-04-22T06:07:09.158Z,97152.34
2023-04-22T06:09:37.881Z,97150.19
2023-04-22T06:12:08.802Z,97147.09
2023-04-22T06:14:37.137Z,97146.75
2023-04-22T06:17:05.570Z,97146.91
2023-04-22T06:19:33.897Z,97150.06
2023-04-22T06:22:07.227Z,97149.22
2023-04-22T06:24:36.934Z,97144.88
2023-04-22T06:27:05.364Z,97145.16
2023-04-22T06:29:33.692Z,97153.28
2023-04-22T06:32:10.345Z,97155.25
2023-04-22T06:34:38.742Z,97148.56
2023-04-22T06:37:11.207Z,97151.31
2023-04-22T06:39:41.240Z,97139.94
2023-04-22T06:42:15.457Z,97141.03
2023-04-22T06:44:43.789Z,97143.78
2023-04-22T06:47:12.092Z,97146.31
2023-04-22T06:49:40.781Z,97146.38
2023-04-22T06:52:09.578Z,97147.94
2023-04-22T06:54:38.433Z,97149.47
2023-04-22T06:57:08.923Z,97150.78
2023-04-22T06:59:37.331Z,97146.78
2023-04-22T07:02:11.197Z,97141.09
2023-04-22T07:04:42.623Z,97151.22
2023-04-22T07:07:11.099Z,97143.41
2023-04-22T07:09:39.706Z,97143.84
2023-04-22T07:12:09.751Z,97149.59
2023-04-22T07:14:38.829Z,97145.44
2023-04-22T07:17:10.038Z,97148.06
2023-04-22T07:19:38.948Z,97138.56
2023-04-22T07:22:09.903Z,97141.34
2023-04-22T07:24:38.731Z,97150.97
2023-04-22T07:27:07.182Z,97150.69
2023-04-22T07:29:37.112Z,97144.25
2023-04-22T07:32:06.604Z,97152.56
2023-04-22T07:34:42.898Z,97150.59
2023-04-22T07:37:11.228Z,97152.16
2023-04-22T07:39:39.832Z,97141.38
2023-04-22T07:42:11.856Z,97140.63
2023-04-22T07:44:41.764Z,97143.81
2023-04-22T07:47:10.364Z,97143.03
2023-04-22T07:49:38.956Z,97136.09
2023-04-22T07:52:07.362Z,97142.75
2023-04-22T07:54:35.670Z,97140.31
2023-04-22T07:57:03.958Z,97134.13
2023-04-22T07:59:32.261Z,97132.53
2023-04-22T08:02:04.711Z,97135.59
2023-04-22T08:04:33.205Z,97137.03
2023-04-22T08:07:09.284Z,97134.09
2023-04-22T08:09:45.783Z,97132.00
2023-04-22T08:12:20.342Z,97131.97
2023-04-22T08:14:48.688Z,97123.69
2023-04-22T08:17:21.817Z,97135.78
2023-04-22T08:19:50.403Z,97134.50
2023-04-22T08:22:18.939Z,97137.06
2023-04-22T08:24:47.222Z,97144.00
2023-04-22T08:27:15.619Z,97133.56
2023-04-22T08:29:44.230Z,97128.94
2023-04-22T08:32:12.665Z,97134.81
2023-04-22T08:34:42.305Z,97137.22
2023-04-22T08:37:10.658Z,97139.38
2023-04-22T08:39:39.189Z,97140.53
2023-04-22T08:42:07.896Z,97133.78
2023-04-22T08:44:37.291Z,97136.38
2023-04-22T08:47:06.599Z,97130.00
2023-04-22T08:49:37.212Z,97133.69
2023-04-22T08:52:09.451Z,97122.75
2023-04-22T08:54:37.763Z,97124.94
2023-04-22T08:57:06.561Z,97123.97
2023-04-22T08:59:36.824Z,97121.09
2023-04-22T09:02:08.721Z,97119.88
2023-04-22T09:04:37.173Z,97116.75
2023-04-22T09:07:07.838Z,97116.44
2023-04-22T09:09:36.345Z,97115.09
2023-04-22T09:12:07.800Z,97110.41
2023-04-22T09:14:36.401Z,97112.28
2023-04-22T09:17:05.002Z,97109.84
2023-04-22T09:19:33.466Z,97108.00
2023-04-22T09:22:02.047Z,97107.16
2023-04-22T09:24:31.940Z,97105.28
2023-04-22T09:27:03.992Z,97102.03
2023-04-22T09:29:32.639Z,97098.47
2023-04-22T09:32:01.571Z,97094.47
2023-04-22T09:34:29.867Z,97095.84
2023-04-22T09:36:58.252Z,97090.19
2023-04-22T09:39:26.641Z,97089.13
2023-04-22T09:41:57.789Z,97091.53
2023-04-22T09:44:29.274Z,97097.72
2023-04-22T09:46:57.680Z,97090.97
2023-04-22T09:49:29.047Z,97095.03
2023-04-22T09:51:59.107Z,97091.78
2023-04-22T09:54:27.461Z,97099.25
2023-04-22T09:56:57.265Z,97094.06
2023-04-22T09:59:28.184Z,97091.81
2023-04-22T10:02:00.208Z,97087.09
2023-04-22T10:04:28.810Z,97086.22
2023-04-22T10:06:57.397Z,97085.88
2023-04-22T10:09:26.761Z,97081.16
2023-04-22T10:11:59.210Z,97075.31
2023-04-22T10:14:28.169Z,97077.56
2023-04-22T10:17:02.406Z,97078.22
2023-04-22T10:19:31.219Z,97069.09
2023-04-22T10:22:03.295Z,97075.44
2023-04-22T10:24:37.697Z,97076.56
2023-04-22T10:27:10.832Z,97067.66
2023-04-22T10:29:42.567Z,97067.97
2023-04-22T10:32:27.175Z,97066.97
2023-04-22T10:35:16.558Z,97061.31
2023-04-22T10:37:46.361Z,97058.69
2023-04-22T10:40:18.298Z,97065.22
2023-04-22T10:42:53.411Z,97064.47
2023-04-22T10:45:26.623Z,97054.19
2023-04-22T10:47:55.089Z,97047.41
2023-04-22T10:50:26.671Z,97049.88
2023-04-22T10:52:58.837Z,97043.94
2023-04-22T10:55:31.645Z,97037.97
2023-04-22T10:58:01.394Z,97038.25
2023-04-22T11:00:53.150Z,97040.72
2023-04-22T11:03:29.058Z,97044.06
2023-04-22T11:06:18.456Z,97034.34
2023-04-22T11:08:50.089Z,97034.94
2023-04-22T11:11:21.075Z,97036.06
2023-04-22T11:13:51.945Z,97039.34
2023-04-22T11:16:23.703Z,97030.16
2023-04-22T11:18:52.110Z,97034.03
2023-04-22T11:21:21.928Z,97032.19
2023-04-22T11:23:53.030Z,97030.59
2023-04-22T11:26:35.970Z,97026.28
2023-04-22T11:29:05.789Z,97027.97
2023-04-22T11:31:34.566Z,97021.00
2023-04-22T11:34:02.985Z,97021.91
2023-04-22T11:36:31.608Z,97023.31
2023-04-22T11:39:00.520Z,97013.56
2023-04-22T11:41:30.078Z,97019.59
2023-04-22T11:43:58.578Z,97016.66
2023-04-22T11:46:38.464Z,97016.41
2023-04-22T11:49:15.213Z,97010.75
2023-04-22T11:51:57.653Z,97012.41
2023-04-22T11:54:43.721Z,97008.59
2023-04-22T11:57:15.729Z,97009.16
2023-04-22T11:59:44.370Z,97012.16
2023-04-22T12:02:14.179Z,97013.53
2023-04-22T12:04:43.167Z,97014.06
2023-04-22T12:07:11.728Z,96997.19
2023-04-22T12:09:41.637Z,96994.47
2023-04-22T12:12:10.229Z,96996.94
2023-04-22T12:14:38.749Z,97004.00
2023-04-22T12:17:10.703Z,97001.56
2023-04-22T12:19:41.048Z,97000.47
2023-04-22T12:22:09.722Z,96997.50
2023-04-22T12:24:38.051Z,97000.22
2023-04-22T12:27:06.463Z,96992.34
2023-04-22T12:29:35.782Z,96987.72
2023-04-22T12:32:04.162Z,97001.06
2023-04-22T12:34:32.552Z,96987.19
2023-04-22T12:37:02.312Z,96994.81
2023-04-22T12:39:30.668Z,96983.66
2023-04-22T12:41:59.099Z,96985.31
2023-04-22T12:44:27.454Z,96991.03
2023-04-22T12:46:55.871Z,96992.09
2023-04-22T12:49:24.283Z,96985.03
2023-04-22T12:51:52.815Z,96980.69
2023-04-22T12:54:22.818Z,96980.97
2023-04-22T12:56:57.880Z,96983.16
2023-04-22T12:59:26.557Z,96979.91
2023-04-22T13:01:55.803Z,96973.09
2023-04-22T13:04:24.410Z,96970.13
2023-04-22T13:06:57.289Z,96971.78
2023-04-22T13:09:27.522Z,96962.25
2023-04-22T13:11:55.935Z,96970.44
2023-04-22T13:14:24.291Z,96961.16
2023-04-22T13:16:54.245Z,96958.16
2023-04-22T13:19:25.622Z,96963.63
2023-04-22T13:21:54.053Z,96954.63
2023-04-22T13:24:22.448Z,96948.91
2023-04-22T13:26:55.256Z,96953.81
2023-04-22T13:29:23.686Z,96939.94
2023-04-22T13:31:52.213Z,96945.94
2023-04-22T13:34:20.648Z,96940.47
2023-04-22T13:36:49.108Z,96936.66
2023-04-22T13:39:17.806Z,96931.50
2023-04-22T13:41:46.376Z,96925.50
2023-04-22T13:44:16.356Z,96927.09
2023-04-22T13:46:50.105Z,96930.34
2023-04-22T13:49:18.505Z,96926.53
2023-04-22T13:51:46.823Z,96924.34
2023-04-22T13:54:15.254Z,96911.25
2023-04-22T13:56:43.669Z,96919.44
2023-04-22T13:59:12.077Z,96914.53
2023-04-22T14:01:41.812Z,96910.69
2023-04-22T14:04:12.456Z,96903.63
2023-04-22T14:06:45.114Z,96902.78
2023-04-22T14:09:13.513Z,96900.88
2023-04-22T14:11:41.987Z,96894.09
2023-04-22T14:14:10.418Z,96894.38
2023-04-22T14:16:46.106Z,96887.56
2023-04-22T14:19:15.621Z,96890.03
2023-04-22T14:21:44.050Z,96885.66
2023-04-22T14:24:12.504Z,96888.34
2023-04-22T14:26:41.157Z,96884.22
2023-04-22T14:29:09.672Z,96880.97
2023-04-22T14:31:38.068Z,96882.56
2023-04-22T14:34:07.876Z,96878.75
2023-04-22T14:36:36.660Z,96875.50
2023-04-22T14:39:05.149Z,96877.66
2023-04-22T14:41:33.677Z,96871.94
2023-04-22T14:44:02.154Z,96863.25
2023-04-22T14:46:31.023Z,96860.53
2023-04-22T14:48:59.448Z,96859.72
2023-04-22T14:51:30.022Z,96861.06
2023-04-22T14:53:58.607Z,96859.72
2023-04-22T14:56:27.320Z,96859.44
2023-04-22T14:58:55.717Z,96859.97
2023-04-22T15:01:24.273Z,96859.72
2023-04-22T15:03:52.866Z,96859.97
2023-04-22T15:06:21.488Z,96855.38
2023-04-22T15:08:52.546Z,96861.91
2023-04-22T15:11:21.165Z,96852.13
2023-04-22T15:13:49.639Z,96854.28
2023-04-22T15:16:18.065Z,96858.34
2023-04-22T15:18:46.584Z,96859.97
2023-04-22T15:21:15.061Z,96858.09
2023-04-22T15:23:43.485Z,96868.97
2023-04-22T15:26:15.186Z,96859.19
2023-04-22T15:28:43.682Z,96861.06
2023-04-22T15:31:12.133Z,96859.97
2023-04-22T15:33:40.594Z,96859.72
2023-04-22T15:36:09.754Z,96859.44
2023-04-22T15:38:38.617Z,96857.00
2023-04-22T15:41:07.124Z,96854.50
2023-04-22T15:43:36.879Z,96855.59
2023-04-22T15:46:05.706Z,96854.50
2023-04-22T15:48:34.141Z,96859.63
2023-04-22T15:51:02.486Z,96849.56
2023-04-22T15:53:31.025Z,96847.09
2023-04-22T15:55:59.440Z,96848.47
2023-04-22T15:58:29.009Z,96841.06
2023-04-22T16:01:11.456Z,96851.91
2023-04-22T16:03:47.229Z,96855.94
2023-04-22T16:06:16.622Z,96859.75
2023-04-22T16:08:45.551Z,96852.13
2023-04-22T16:11:15.674Z,96855.09
2023-04-22T16:13:44.450Z,96856.69
2023-04-22T16:16:14.207Z,96861.84
2023-04-22T16:18:44.324Z,96855.00
2023-04-22T16:21:13.009Z,96849.53
2023-04-22T16:23:41.764Z,96849.81
2023-04-22T16:26:10.828Z,96843.81
2023-04-22T16:28:39.275Z,96844.63
2023-04-22T16:31:08.912Z,96841.34
2023-04-22T16:33:38.748Z,96840.81
2023-04-22T16:36:08.986Z,96844.34
2023-04-22T16:38:37.500Z,96845.69
2023-04-22T16:41:06.188Z,96841.59
2023-04-22T16:43:34.622Z,96844.84
2023-04-22T16:46:05.767Z,96842.63
2023-04-22T16:48:34.149Z,96851.53
2023-04-22T16:51:03.959Z,96852.06
2023-04-22T16:53:32.558Z,96843.09
2023-04-22T16:56:00.986Z,96839.81
2023-04-22T16:58:30.061Z,96852.25
2023-04-22T17:00:58.456Z,96845.69
2023-04-22T17:03:27.509Z,96851.38
2023-04-22T17:05:56.223Z,96851.56
2023-04-22T17:08:25.912Z,96849.06
2023-04-22T17:10:54.319Z,96846.31
2023-04-22T17:13:22.676Z,96842.75
2023-04-22T17:15:51.098Z,96844.81
2023-04-22T17:18:19.464Z,96836.91
2023-04-22T17:20:49.094Z,96845.50
2023-04-22T17:23:17.587Z,96850.56
2023-04-22T17:25:47.973Z,96849.97
2023-04-22T17:28:16.706Z,96850.66
2023-04-22T17:30:45.277Z,96846.78
2023-04-22T17:33:13.688Z,96845.81
2023-04-22T17:35:42.211Z,96850.63
2023-04-22T17:38:10.576Z,96845.09
2023-04-22T17:40:39.581Z,96843.56
2023-04-22T17:43:09.314Z,96849.09
2023-04-22T17:45:40.608Z,96851.09
2023-04-22T17:48:09.087Z,96851.19
2023-04-22T17:50:37.528Z,96857.75
2023-04-22T17:53:05.902Z,96852.97
2023-04-22T17:55:35.366Z,96851.41
2023-04-22T17:58:03.805Z,96852.56
2023-04-22T18:00:37.617Z,96854.75
2023-04-22T18:03:06.914Z,96849.88
2023-04-22T18:05:45.670Z,96851.56
2023-04-22T18:08:14.105Z,96854.59
2023-04-22T18:10:42.526Z,96855.72
2023-04-22T18:13:10.877Z,96854.72
2023-04-22T18:15:40.727Z,96856.00
2023-04-22T18:18:09.058Z,96855.22
2023-04-22T18:20:37.552Z,96858.22
2023-04-22T18:23:05.951Z,96863.06
2023-04-22T18:25:36.457Z,96867.75
2023-04-22T18:28:05.005Z,96865.28
2023-04-22T18:30:33.539Z,96868.22
2023-04-22T18:33:04.748Z,96867.63
2023-04-22T18:35:36.780Z,96865.16
2023-04-22T18:38:05.241Z,96871.63
2023-04-22T18:40:33.715Z,96866.19
2023-04-22T18:43:02.219Z,96872.13
2023-04-22T18:45:30.653Z,96878.91
2023-04-22T18:47:59.462Z,96877.38
2023-04-22T18:50:29.328Z,96872.31
2023-04-22T18:52:57.747Z,96872.66
2023-04-22T18:55:28.161Z,96881.25
2023-04-22T18:57:56.539Z,96891.09
2023-04-22T19:00:25.004Z,96889.31
2023-04-22T19:02:53.552Z,96891.50
2023-04-22T19:05:25.637Z,96887.22
2023-04-22T19:07:55.393Z,96892.66
2023-04-22T19:10:23.849Z,96887.59
2023-04-22T19:12:53.240Z,96884.38
2023-04-22T19:15:21.859Z,96892.53
2023-04-22T19:17:50.555Z,96887.47
2023-04-22T19:20:19.127Z,96895.59
2023-04-22T19:22:47.500Z,96891.31
2023-04-22T19:25:18.772Z,96893.28
2023-04-22T19:27:47.192Z,96887.56
2023-04-22T19:30:16.426Z,96894.06
2023-04-22T19:32:44.862Z,96899.69
2023-04-22T19:35:16.337Z,96894.63
2023-04-22T19:37:45.730Z,96901.91
2023-04-22T19:40:18.423Z,96910.84
2023-04-22T19:42:47.174Z,96903.06
2023-04-22T19:45:16.844Z,96906.63
2023-04-22T19:47:45.900Z,96902.34
2023-04-22T19:50:16.689Z,96901.59
2023-04-22T19:52:47.852Z,96903.47
2023-04-22T19:55:18.140Z,96892.75
2023-04-22T19:57:47.131Z,96908.06
2023-04-22T20:00:16.685Z,96904.84
2023-04-22T20:02:45.933Z,96903.84
2023-04-22T20:05:15.705Z,96908.44
2023-04-22T20:07:45.388Z,96898.78
2023-04-22T20:10:16.506Z,96902.09
2023-04-22T20:12:45.981Z,96902.13
2023-04-22T20:15:15.185Z,96902.75
2023-04-22T20:17:44.548Z,96906.28
2023-04-22T20:20:15.461Z,96903.63
2023-04-22T20:22:45.767Z,96907.78
2023-04-22T20:25:18.101Z,96907.00
2023-04-22T20:27:47.019Z,96903.06
2023-04-22T20:30:16.051Z,96905.34
2023-04-22T20:32:44.801Z,96904.94
2023-04-22T20:35:16.482Z,96905.34
2023-04-22T20:37:47.288Z,96901.66
2023-04-22T20:40:18.951Z,96910.34
2023-04-22T20:42:47.665Z,96911.59
2023-04-22T20:45:17.933Z,96910.56
2023-04-22T20:47:46.547Z,96914.69
2023-04-22T20:50:16.010Z,96913.47
2023-04-22T20:52:44.441Z,96918.41
2023-04-22T20:55:12.851Z,96917.00
2023-04-22T20:57:43.276Z,96922.97
2023-04-22T21:00:13.001Z,96920.50
2023-04-22T21:02:41.854Z,96911.44
2023-04-22T21:05:13.123Z,96903.81
2023-04-22T21:07:42.203Z,96918.69
2023-04-22T21:10:12.082Z,96924.44
2023-04-22T21:12:42.823Z,96919.66
2023-04-22T21:15:13.092Z,96924.00
2023-04-22T21:17:44.587Z,96925.84
2023-04-22T21:20:14.164Z,96935.13
2023-04-22T21:22:44.854Z,96940.06
2023-04-22T21:25:19.189Z,96935.94
2023-04-22T21:27:50.356Z,96928.97
2023-04-22T21:30:20.110Z,96932.84
2023-04-22T21:32:48.604Z,96929.38
2023-04-22T21:35:17.760Z,96941.91
2023-04-22T21:37:46.431Z,96942.97
2023-04-22T21:40:14.986Z,96941.28
2023-04-22T21:42:43.932Z,96943.16
2023-04-22T21:45:13.858Z,96928.72
2023-04-22T21:47:42.604Z,96949.09
2023-04-22T21:50:12.250Z,96936.13
2023-04-22T21:52:41.030Z,96958.19
2023-04-22T21:55:11.553Z,96963.09
2023-04-22T21:57:40.287Z,96980.00
2023-04-22T22:00:18.514Z,96974.84
2023-04-22T22:02:49.530Z,96975.06
2023-04-22T22:05:18.135Z,96968.88
2023-04-22T22:07:46.678Z,96961.22
2023-04-22T22:10:19.282Z,96957.53
2023-04-22T22:12:48.256Z,96951.38
2023-04-22T22:15:17.310Z,96955.88
2023-04-22T22:17:47.599Z,96951.78
2023-04-22T22:20:20.173Z,96957.13
2023-04-22T22:22:49.437Z,96956.50
2023-04-22T22:25:18.046Z,96950.31
2023-04-22T22:27:49.115Z,96958.56
2023-04-22T22:30:20.549Z,96970.06
2023-04-22T22:32:50.600Z,96991.28
2023-04-22T22:35:19.278Z,96982.41
2023-04-22T22:37:47.693Z,96980.78
2023-04-22T22:40:16.495Z,96978.31
2023-04-22T22:42:44.883Z,96978.50
2023-04-22T22:45:13.585Z,96970.69
2023-04-22T22:47:42.065Z,96960.56
2023-04-22T22:50:12.562Z,96966.75
2023-04-22T22:52:41.157Z,96963.47
2023-04-22T22:55:10.381Z,96968.22
2023-04-22T22:57:38.726Z,96967.78
2023-04-22T23:00:09.550Z,96974.38
2023-04-22T23:02:38.097Z,96971.69
2023-04-22T23:05:10.632Z,96975.16
2023-04-22T23:07:41.224Z,96973.13
2023-04-22T23:10:10.901Z,96966.94
2023-04-22T23:12:39.317Z,96973.75
2023-04-22T23:15:09.620Z,96970.03
2023-04-22T23:17:38.194Z,96967.16
2023-04-22T23:20:09.668Z,96969.00
2023-04-22T23:22:40.942Z,96969.00
2023-04-22T23:25:11.297Z,96976.22
2023-04-22T23:27:40.642Z,96971.69
2023-04-22T23:30:10.934Z,96962.84
2023-04-22T23:32:41.591Z,96969.22
2023-04-22T23:35:16.536Z,96966.53
2023-04-22T23:37:46.944Z,96960.59
2023-04-22T23:40:15.492Z,96959.53
2023-04-22T23:42:43.939Z,96950.88
2023-04-22T23:45:13.394Z,96951.91
2023-04-22T23:47:42.093Z,96946.78
2023-04-22T23:50:14.157Z,96949.66
2023-04-22T23:52:42.753Z,96945.53
2023-04-22T23:55:15.930Z,96942.22
2023-04-22T23:57:45.169Z,96948.81
